sensor_id;sensor_type;location;lat;lon;timestamp;temperature;humidity
10010;DHT22;5044;48.652;9.250;2024-01-30T00:02:24;2.40;99.90
10010;DHT22;5044;48.652;9.250;2024-01-30T00:04:51;2.40;99.90
10010;DHT22;5044;48.652;9.250;2024-01-30T00:07:18;2.20;99.90
10010;DHT22;5044;48.652;9.250;2024-01-30T00:09:46;2.70;99.90
10010;DHT22;5044;48.652;9.250;2024-01-30T00:12:17;2.10;99.90
10010;DHT22;5044;48.652;9.250;2024-01-30T00:14:45;2.10;99.90
10010;DHT22;5044;48.652;9.250;2024-01-30T00:17:12;2.10;99.90
10010;DHT22;5044;48.652;9.250;2024-01-30T00:19:39;2.10;99.90
10010;DHT22;5044;48.652;9.250;2024-01-30T00:22:06;2.00;99.90
10010;DHT22;5044;48.652;9.250;2024-01-30T00:24:33;2.20;99.90
10010;DHT22;5044;48.652;9.250;2024-01-30T00:27:00;2.10;99.90
10010;DHT22;5044;48.652;9.250;2024-01-30T00:29:29;1.90;99.90
10010;DHT22;5044;48.652;9.250;2024-01-30T00:31:59;1.90;99.90
10010;DHT22;5044;48.652;9.250;2024-01-30T00:34:26;1.90;99.90
10010;DHT22;5044;48.652;9.250;2024-01-30T00:36:54;1.80;99.90
10010;DHT22;5044;48.652;9.250;2024-01-30T00:39:21;1.90;99.90
10010;DHT22;5044;48.652;9.250;2024-01-30T00:41:48;2.10;99.90
10010;DHT22;5044;48.652;9.250;2024-01-30T00:44:15;1.80;99.90
10010;DHT22;5044;48.652;9.250;2024-01-30T00:46:45;1.80;99.90
10010;DHT22;5044;48.652;9.250;2024-01-30T00:49:12;2.30;99.90
10010;DHT22;5044;48.652;9.250;2024-01-30T00:51:39;2.50;99.90
10010;DHT22;5044;48.652;9.250;2024-01-30T00:54:06;2.30;99.90
10010;DHT22;5044;48.652;9.250;2024-01-30T00:56:33;1.90;99.90
10010;DHT22;5044;48.652;9.250;2024-01-30T00:59:00;1.90;99.90
10010;DHT22;5044;48.652;9.250;2024-01-30T01:01:27;1.90;99.90
10010;DHT22;5044;48.652;9.250;2024-01-30T01:03:59;2.20;99.90
10010;DHT22;5044;48.652;9.250;2024-01-30T01:06:26;1.90;99.90
10010;DHT22;5044;48.652;9.250;2024-01-30T01:08:53;2.30;99.90
10010;DHT22;5044;48.652;9.250;2024-01-30T01:11:20;2.10;99.90
10010;DHT22;5044;48.652;9.250;2024-01-30T01:13:47;1.90;99.90
10010;DHT22;5044;48.652;9.250;2024-01-30T01:16:15;1.90;99.90
10010;DHT22;5044;48.652;9.250;2024-01-30T01:18:42;1.80;99.90
10010;DHT22;5044;48.652;9.250;2024-01-30T01:21:10;1.80;99.90
10010;DHT22;5044;48.652;9.250;2024-01-30T01:23:38;1.80;99.90
10010;DHT22;5044;48.652;9.250;2024-01-30T01:26:05;1.90;99.90
10010;DHT22;5044;48.652;9.250;2024-01-30T01:28:35;1.90;99.90
10010;DHT22;5044;48.652;9.250;2024-01-30T01:31:02;1.90;99.90
10010;DHT22;5044;48.652;9.250;2024-01-30T01:33:31;1.90;99.90
10010;DHT22;5044;48.652;9.250;2024-01-30T01:35:58;2.10;99.90
10010;DHT22;5044;48.652;9.250;2024-01-30T01:38:30;1.80;99.90
10010;DHT22;5044;48.652;9.250;2024-01-30T01:40:57;1.80;99.90
10010;DHT22;5044;48.652;9.250;2024-01-30T01:43:24;1.70;99.90
10010;DHT22;5044;48.652;9.250;2024-01-30T01:45:51;1.80;99.90
10010;DHT22;5044;48.652;9.250;2024-01-30T01:48:18;2.40;99.90
10010;DHT22;5044;48.652;9.250;2024-01-30T01:50:46;1.80;99.90
10010;DHT22;5044;48.652;9.250;2024-01-30T01:53:13;1.80;99.90
10010;DHT22;5044;48.652;9.250;2024-01-30T01:55:43;1.80;99.90
10010;DHT22;5044;48.652;9.250;2024-01-30T01:58:10;1.80;99.90
10010;DHT22;5044;48.652;9.250;2024-01-30T02:00:39;2.40;99.90
10010;DHT22;5044;48.652;9.250;2024-01-30T02:03:09;1.80;99.90
10010;DHT22;5044;48.652;9.250;2024-01-30T02:05:37;2.40;99.90
10010;DHT22;5044;48.652;9.250;2024-01-30T02:08:05;1.80;99.90
10010;DHT22;5044;48.652;9.250;2024-01-30T02:10:33;1.70;99.90
10010;DHT22;5044;48.652;9.250;2024-01-30T02:13:02;1.90;99.90
10010;DHT22;5044;48.652;9.250;2024-01-30T02:15:30;1.70;99.90
10010;DHT22;5044;48.652;9.250;2024-01-30T02:17:57;1.70;99.90
10010;DHT22;5044;48.652;9.250;2024-01-30T02:20:25;1.70;99.90
10010;DHT22;5044;48.652;9.250;2024-01-30T02:22:58;1.90;99.90
10010;DHT22;5044;48.652;9.250;2024-01-30T02:25:38;2.20;99.90
10010;DHT22;5044;48.652;9.250;2024-01-30T02:28:09;1.70;99.90
10010;DHT22;5044;48.652;9.250;2024-01-30T02:30:36;1.70;99.90
10010;DHT22;5044;48.652;9.250;2024-01-30T02:33:04;1.60;99.90
10010;DHT22;5044;48.652;9.250;2024-01-30T02:35:31;1.60;99.90
10010;DHT22;5044;48.652;9.250;2024-01-30T02:38:00;1.50;99.90
10010;DHT22;5044;48.652;9.250;2024-01-30T02:40:27;1.50;99.90
10010;DHT22;5044;48.652;9.250;2024-01-30T02:42:54;1.50;99.90
10010;DHT22;5044;48.652;9.250;2024-01-30T02:45:22;1.90;99.90
10010;DHT22;5044;48.652;9.250;2024-01-30T02:47:49;1.50;99.90
10010;DHT22;5044;48.652;9.250;2024-01-30T02:50:16;1.60;99.90
10010;DHT22;5044;48.652;9.250;2024-01-30T02:52:43;1.60;99.90
10010;DHT22;5044;48.652;9.250;2024-01-30T02:55:12;1.60;99.90
10010;DHT22;5044;48.652;9.250;2024-01-30T02:57:39;1.60;99.90
10010;DHT22;5044;48.652;9.250;2024-01-30T03:00:07;2.00;99.90
10010;DHT22;5044;48.652;9.250;2024-01-30T03:02:35;1.50;99.90
10010;DHT22;5044;48.652;9.250;2024-01-30T03:05:02;1.70;99.90
10010;DHT22;5044;48.652;9.250;2024-01-30T03:07:30;1.50;99.90
10010;DHT22;5044;48.652;9.250;2024-01-30T03:09:57;1.50;99.90
10010;DHT22;5044;48.652;9.250;2024-01-30T03:12:25;1.50;99.90
10010;DHT22;5044;48.652;9.250;2024-01-30T03:14:52;1.50;99.90
10010;DHT22;5044;48.652;9.250;2024-01-30T03:17:21;1.40;99.90
10010;DHT22;5044;48.652;9.250;2024-01-30T03:19:49;1.40;99.90
10010;DHT22;5044;48.652;9.250;2024-01-30T03:22:16;1.40;99.90
10010;DHT22;5044;48.652;9.250;2024-01-30T03:24:43;1.40;99.90
10010;DHT22;5044;48.652;9.250;2024-01-30T03:27:10;1.40;99.90
10010;DHT22;5044;48.652;9.250;2024-01-30T03:29:39;1.40;99.90
10010;DHT22;5044;48.652;9.250;2024-01-30T03:32:06;1.40;99.90
10010;DHT22;5044;48.652;9.250;2024-01-30T03:34:33;1.40;99.90
10010;DHT22;5044;48.652;9.250;2024-01-30T03:37:00;1.40;99.90
10010;DHT22;5044;48.652;9.250;2024-01-30T03:39:27;1.90;99.90
10010;DHT22;5044;48.652;9.250;2024-01-30T03:41:54;1.40;99.90
10010;DHT22;5044;48.652;9.250;2024-01-30T03:44:21;2.00;99.90
10010;DHT22;5044;48.652;9.250;2024-01-30T03:46:50;1.40;99.90
10010;DHT22;5044;48.652;9.250;2024-01-30T03:49:17;1.40;99.90
10010;DHT22;5044;48.652;9.250;2024-01-30T03:51:44;1.60;99.90
10010;DHT22;5044;48.652;9.250;2024-01-30T03:54:13;1.40;99.90
10010;DHT22;5044;48.652;9.250;2024-01-30T03:56:39;1.50;99.90
10010;DHT22;5044;48.652;9.250;2024-01-30T03:59:07;1.30;99.90
10010;DHT22;5044;48.652;9.250;2024-01-30T04:01:34;1.90;99.90
10010;DHT22;5044;48.652;9.250;2024-01-30T04:04:03;1.30;99.90
10010;DHT22;5044;48.652;9.250;2024-01-30T04:06:30;1.30;99.90
10010;DHT22;5044;48.652;9.250;2024-01-30T04:08:57;1.30;99.90
10010;DHT22;5044;48.652;9.250;2024-01-30T04:11:24;1.30;99.90
10010;DHT22;5044;48.652;9.250;2024-01-30T04:13:51;1.60;99.90
10010;DHT22;5044;48.652;9.250;2024-01-30T04:16:21;1.60;99.90
10010;DHT22;5044;48.652;9.250;2024-01-30T04:18:48;1.60;99.90
10010;DHT22;5044;48.652;9.250;2024-01-30T04:21:17;1.20;99.90
10010;DHT22;5044;48.652;9.250;2024-01-30T04:23:43;1.20;99.90
10010;DHT22;5044;48.652;9.250;2024-01-30T04:26:11;1.30;99.90
10010;DHT22;5044;48.652;9.250;2024-01-30T04:28:38;1.80;99.90
10010;DHT22;5044;48.652;9.250;2024-01-30T04:31:05;1.10;99.90
10010;DHT22;5044;48.652;9.250;2024-01-30T04:33:32;1.60;99.90
10010;DHT22;5044;48.652;9.250;2024-01-30T04:35:59;1.50;99.90
10010;DHT22;5044;48.652;9.250;2024-01-30T04:38:28;1.00;99.90
10010;DHT22;5044;48.652;9.250;2024-01-30T04:40:59;1.00;99.90
10010;DHT22;5044;48.652;9.250;2024-01-30T04:43:26;1.00;99.90
10010;DHT22;5044;48.652;9.250;2024-01-30T04:45:54;0.90;99.90
10010;DHT22;5044;48.652;9.250;2024-01-30T04:48:20;0.90;99.90
10010;DHT22;5044;48.652;9.250;2024-01-30T04:56:00;0.80;99.90
10010;DHT22;5044;48.652;9.250;2024-01-30T04:58:27;0.80;99.90
10010;DHT22;5044;48.652;9.250;2024-01-30T05:00:55;0.80;99.90
10010;DHT22;5044;48.652;9.250;2024-01-30T05:03:22;0.80;99.90
10010;DHT22;5044;48.652;9.250;2024-01-30T05:05:49;1.00;99.90
10010;DHT22;5044;48.652;9.250;2024-01-30T05:08:17;1.30;99.90
10010;DHT22;5044;48.652;9.250;2024-01-30T05:10:44;0.60;99.90
10010;DHT22;5044;48.652;9.250;2024-01-30T05:13:13;0.60;99.90
10010;DHT22;5044;48.652;9.250;2024-01-30T05:15:42;0.60;99.90
10010;DHT22;5044;48.652;9.250;2024-01-30T05:18:09;0.90;99.90
10010;DHT22;5044;48.652;9.250;2024-01-30T05:20:39;0.60;99.90
10010;DHT22;5044;48.652;9.250;2024-01-30T05:23:06;0.60;99.90
10010;DHT22;5044;48.652;9.250;2024-01-30T05:25:33;0.60;99.90
10010;DHT22;5044;48.652;9.250;2024-01-30T05:28:00;0.70;99.90
10010;DHT22;5044;48.652;9.250;2024-01-30T05:30:28;1.20;99.90
10010;DHT22;5044;48.652;9.250;2024-01-30T05:32:55;0.90;99.90
10010;DHT22;5044;48.652;9.250;2024-01-30T05:35:22;0.40;99.90
10010;DHT22;5044;48.652;9.250;2024-01-30T05:37:50;0.40;99.90
10010;DHT22;5044;48.652;9.250;2024-01-30T05:40:17;0.40;99.90
10010;DHT22;5044;48.652;9.250;2024-01-30T05:42:44;0.40;99.90
10010;DHT22;5044;48.652;9.250;2024-01-30T05:45:11;0.40;99.90
10010;DHT22;5044;48.652;9.250;2024-01-30T05:47:39;0.40;99.90
10010;DHT22;5044;48.652;9.250;2024-01-30T05:50:07;0.40;99.90
10010;DHT22;5044;48.652;9.250;2024-01-30T05:52:34;0.40;99.90
10010;DHT22;5044;48.652;9.250;2024-01-30T05:55:01;0.40;99.90
10010;DHT22;5044;48.652;9.250;2024-01-30T05:57:28;0.40;99.90
10010;DHT22;5044;48.652;9.250;2024-01-30T05:59:56;0.40;99.90
10010;DHT22;5044;48.652;9.250;2024-01-30T06:02:23;0.30;99.90
10010;DHT22;5044;48.652;9.250;2024-01-30T06:04:51;0.30;99.90
10010;DHT22;5044;48.652;9.250;2024-01-30T06:07:18;0.30;99.90
10010;DHT22;5044;48.652;9.250;2024-01-30T06:09:45;0.30;99.90
10010;DHT22;5044;48.652;9.250;2024-01-30T06:12:12;0.30;99.90
10010;DHT22;5044;48.652;9.250;2024-01-30T06:14:39;0.30;99.90
10010;DHT22;5044;48.652;9.250;2024-01-30T06:17:07;0.90;99.90
10010;DHT22;5044;48.652;9.250;2024-01-30T06:19:34;0.60;99.90
10010;DHT22;5044;48.652;9.250;2024-01-30T06:22:03;0.30;99.90
10010;DHT22;5044;48.652;9.250;2024-01-30T06:24:31;0.80;99.90
10010;DHT22;5044;48.652;9.250;2024-01-30T06:26:59;0.30;99.90
10010;DHT22;5044;48.652;9.250;2024-01-30T06:29:26;0.20;99.90
10010;DHT22;5044;48.652;9.250;2024-01-30T06:31:54;0.50;99.90
10010;DHT22;5044;48.652;9.250;2024-01-30T06:34:35;0.20;99.90
10010;DHT22;5044;48.652;9.250;2024-01-30T06:37:05;0.40;99.90
10010;DHT22;5044;48.652;9.250;2024-01-30T06:39:33;0.80;99.90
10010;DHT22;5044;48.652;9.250;2024-01-30T06:42:00;0.20;99.90
10010;DHT22;5044;48.652;9.250;2024-01-30T06:44:33;0.20;99.90
10010;DHT22;5044;48.652;9.250;2024-01-30T06:47:01;0.20;99.90
10010;DHT22;5044;48.652;9.250;2024-01-30T06:49:29;0.20;99.90
10010;DHT22;5044;48.652;9.250;2024-01-30T06:52:01;0.20;99.90
10010;DHT22;5044;48.652;9.250;2024-01-30T06:54:32;0.40;99.90
10010;DHT22;5044;48.652;9.250;2024-01-30T06:56:59;0.20;99.90
10010;DHT22;5044;48.652;9.250;2024-01-30T06:59:27;0.10;99.90
10010;DHT22;5044;48.652;9.250;2024-01-30T07:01:54;0.30;99.90
10010;DHT22;5044;48.652;9.250;2024-01-30T07:04:22;0.40;99.90
10010;DHT22;5044;48.652;9.250;2024-01-30T07:06:52;0.20;99.90
10010;DHT22;5044;48.652;9.250;2024-01-30T07:09:21;0.70;99.90
10010;DHT22;5044;48.652;9.250;2024-01-30T07:14:50;0.00;99.90
10010;DHT22;5044;48.652;9.250;2024-01-30T07:17:17;0.60;99.90
10010;DHT22;5044;48.652;9.250;2024-01-30T07:19:47;0.10;99.90
10010;DHT22;5044;48.652;9.250;2024-01-30T07:22:13;0.90;99.90
10010;DHT22;5044;48.652;9.250;2024-01-30T07:24:46;0.10;99.90
10010;DHT22;5044;48.652;9.250;2024-01-30T07:27:18;0.30;99.90
10010;DHT22;5044;48.652;9.250;2024-01-30T07:29:53;0.10;99.90
10010;DHT22;5044;48.652;9.250;2024-01-30T07:32:35;0.10;99.90
10010;DHT22;5044;48.652;9.250;2024-01-30T07:35:05;0.60;99.90
10010;DHT22;5044;48.652;9.250;2024-01-30T07:37:47;0.20;99.90
10010;DHT22;5044;48.652;9.250;2024-01-30T07:40:30;0.20;99.90
10010;DHT22;5044;48.652;9.250;2024-01-30T07:43:01;0.30;99.90
10010;DHT22;5044;48.652;9.250;2024-01-30T07:45:30;0.30;99.90
10010;DHT22;5044;48.652;9.250;2024-01-30T07:47:59;0.70;99.90
10010;DHT22;5044;48.652;9.250;2024-01-30T07:50:27;0.40;99.90
10010;DHT22;5044;48.652;9.250;2024-01-30T07:52:56;0.80;99.90
10010;DHT22;5044;48.652;9.250;2024-01-30T07:55:23;0.80;99.90
10010;DHT22;5044;48.652;9.250;2024-01-30T07:57:54;0.60;99.90
10010;DHT22;5044;48.652;9.250;2024-01-30T08:00:21;0.70;99.90
10010;DHT22;5044;48.652;9.250;2024-01-30T08:03:01;0.80;99.90
10010;DHT22;5044;48.652;9.250;2024-01-30T08:05:31;1.10;99.90
10010;DHT22;5044;48.652;9.250;2024-01-30T08:07:59;1.60;99.90
10010;DHT22;5044;48.652;9.250;2024-01-30T08:10:29;1.30;99.90
10010;DHT22;5044;48.652;9.250;2024-01-30T08:12:57;1.40;99.90
10010;DHT22;5044;48.652;9.250;2024-01-30T08:15:29;1.40;99.90
10010;DHT22;5044;48.652;9.250;2024-01-30T08:17:59;1.50;99.90
10010;DHT22;5044;48.652;9.250;2024-01-30T08:20:26;1.40;99.90
10010;DHT22;5044;48.652;9.250;2024-01-30T08:22:53;2.00;99.90
10010;DHT22;5044;48.652;9.250;2024-01-30T08:25:22;1.70;99.90
10010;DHT22;5044;48.652;9.250;2024-01-30T08:27:49;1.90;99.90
10010;DHT22;5044;48.652;9.250;2024-01-30T08:30:21;1.70;99.90
10010;DHT22;5044;48.652;9.250;2024-01-30T08:32:49;2.40;99.90
10010;DHT22;5044;48.652;9.250;2024-01-30T08:35:20;2.10;99.90
10010;DHT22;5044;48.652;9.250;2024-01-30T08:37:48;2.20;99.90
10010;DHT22;5044;48.652;9.250;2024-01-30T08:40:30;2.40;99.90
10010;DHT22;5044;48.652;9.250;2024-01-30T08:43:09;2.50;99.90
10010;DHT22;5044;48.652;9.250;2024-01-30T09:30:15;5.00;99.90
10010;DHT22;5044;48.652;9.250;2024-01-30T14:20:13;11.90;94.90
10010;DHT22;5044;48.652;9.250;2024-01-30T14:22:42;11.90;95.70
10010;DHT22;5044;48.652;9.250;2024-01-30T14:25:11;11.90;95.90
10010;DHT22;5044;48.652;9.250;2024-01-30T14:27:38;11.80;95.00
10010;DHT22;5044;48.652;9.250;2024-01-30T14:30:13;11.70;94.60
10010;DHT22;5044;48.652;9.250;2024-01-30T14:32:40;11.50;95.30
10010;DHT22;5044;48.652;9.250;2024-01-30T14:35:10;11.60;94.90
10010;DHT22;5044;48.652;9.250;2024-01-30T14:37:39;11.50;92.80
10010;DHT22;5044;48.652;9.250;2024-01-30T14:40:07;11.50;98.00
10010;DHT22;5044;48.652;9.250;2024-01-30T14:42:34;11.50;95.80
10010;DHT22;5044;48.652;9.250;2024-01-30T14:45:06;11.50;93.10
10010;DHT22;5044;48.652;9.250;2024-01-30T14:47:34;11.40;92.40
10010;DHT22;5044;48.652;9.250;2024-01-30T14:50:02;11.40;95.50
10010;DHT22;5044;48.652;9.250;2024-01-30T14:52:30;11.40;94.60
10010;DHT22;5044;48.652;9.250;2024-01-30T14:55:10;11.30;95.60
10010;DHT22;5044;48.652;9.250;2024-01-30T14:58:04;11.30;96.10
10010;DHT22;5044;48.652;9.250;2024-01-30T15:00:34;11.20;94.70
10010;DHT22;5044;48.652;9.250;2024-01-30T15:03:28;11.10;95.40
10010;DHT22;5044;48.652;9.250;2024-01-30T15:50:11;9.60;94.80
10010;DHT22;5044;48.652;9.250;2024-01-30T15:53:19;9.40;95.60
10010;DHT22;5044;48.652;9.250;2024-01-30T15:55:48;9.30;96.30
10010;DHT22;5044;48.652;9.250;2024-01-30T15:58:30;9.20;95.70
10010;DHT22;5044;48.652;9.250;2024-01-30T16:01:02;9.20;95.70
10010;DHT22;5044;48.652;9.250;2024-01-30T16:03:32;9.10;96.60
10010;DHT22;5044;48.652;9.250;2024-01-30T16:06:05;9.10;96.20
10010;DHT22;5044;48.652;9.250;2024-01-30T16:08:37;9.00;97.50
10010;DHT22;5044;48.652;9.250;2024-01-30T16:11:06;8.90;98.70
10010;DHT22;5044;48.652;9.250;2024-01-30T16:13:47;8.80;99.70
10010;DHT22;5044;48.652;9.250;2024-01-30T16:16:21;8.80;99.90
10010;DHT22;5044;48.652;9.250;2024-01-30T16:18:55;8.70;99.90
